createdAt,value
2019-03-28T00:00:19.522Z,70.84
2019-03-28T00:01:19.525Z,71.37
2019-03-28T00:02:19.472Z,71.11
2019-03-28T00:03:19.497Z,70.61
2019-03-28T00:04:19.515Z,71.04
2019-03-28T00:05:19.587Z,71.4
2019-03-28T00:06:19.483Z,71.09
2019-03-28T00:07:19.527Z,70.71
2019-03-28T00:08:19.523Z,70.65
2019-03-28T00:09:20.080Z,71.09
2019-03-28T00:10:20.820Z,70.95
2019-03-28T00:11:19.501Z,70.75
2019-03-28T00:12:19.477Z,70.91
2019-03-28T00:13:19.492Z,70.92
2019-03-28T00:14:20.459Z,71.74
2019-03-28T00:15:19.564Z,71.93
2019-03-28T00:16:19.492Z,71.93
2019-03-28T00:17:19.494Z,71.85
2019-03-28T00:18:19.487Z,71.83
2019-03-28T00:19:19.539Z,71.91
2019-03-28T00:20:19.456Z,71.72
2019-03-28T00:21:19.470Z,71.78
2019-03-28T00:22:19.462Z,71.53
2019-03-28T00:23:19.443Z,71.58
2019-03-28T00:24:19.485Z,71.23
2019-03-28T00:25:19.489Z,71.44
2019-03-28T00:26:32.185Z,71.32
2019-03-28T00:27:19.449Z,71.56
2019-03-28T00:28:19.495Z,71.81
2019-03-28T00:29:19.470Z,72.24
2019-03-28T00:30:19.529Z,72.03
2019-03-28T00:31:19.485Z,71.83
2019-03-28T00:32:19.507Z,71.62
2019-03-28T00:33:19.474Z,71.26
2019-03-28T00:34:19.474Z,71.83
2019-03-28T00:35:19.474Z,72.44
2019-03-28T00:36:19.462Z,72.14
2019-03-28T00:37:20.914Z,71.87
2019-03-28T00:38:19.425Z,71.89
2019-03-28T00:39:19.490Z,71.91
2019-03-28T00:40:19.454Z,71.95
2019-03-28T00:41:20.467Z,71.5
2019-03-28T00:42:19.439Z,71.41
2019-03-28T00:43:19.448Z,71.98
2019-03-28T00:44:19.418Z,71.9
2019-03-28T00:45:19.436Z,71.89
2019-03-28T00:46:19.434Z,71.67
2019-03-28T00:47:19.503Z,71.36
2019-03-28T00:48:19.421Z,71.11
2019-03-28T00:49:19.455Z,71.64
2019-03-28T00:50:19.419Z,71.56
2019-03-28T00:51:19.426Z,71.84
2019-03-28T00:52:19.425Z,71.53
2019-03-28T00:53:19.430Z,71.31
2019-03-28T00:54:19.425Z,71.41
2019-03-28T00:55:19.429Z,71.66
2019-03-28T00:56:19.440Z,71.17
2019-03-28T00:57:19.715Z,70.9
2019-03-28T00:58:19.466Z,71.82
2019-03-28T00:59:19.502Z,71.58
2019-03-28T01:00:20.695Z,71.19
2019-03-28T01:01:19.440Z,71.36
2019-03-28T01:02:19.402Z,71.14
2019-03-28T01:03:19.401Z,70.82
2019-03-28T01:04:19.400Z,71.48
2019-03-28T01:05:19.448Z,71.97
2019-03-28T01:06:19.396Z,71.91
2019-03-28T01:07:19.435Z,71.6
2019-03-28T01:08:19.380Z,71.79
2019-03-28T01:09:19.412Z,71.64
2019-03-28T01:10:19.374Z,71.38
2019-03-28T01:11:19.392Z,71.76
2019-03-28T01:12:19.414Z,71.57
2019-03-28T01:13:19.467Z,71.77
2019-03-28T01:14:19.403Z,71.59
2019-03-28T01:15:19.427Z,71.98
2019-03-28T01:16:19.372Z,72.76
2019-03-28T01:17:19.374Z,72.88
2019-03-28T01:18:20.391Z,72.82
2019-03-28T01:19:19.385Z,73.07
2019-03-28T01:20:19.382Z,73.1
2019-03-28T01:21:19.384Z,73.03
2019-03-28T01:22:19.353Z,72.83
2019-03-28T01:23:19.357Z,73.15
2019-03-28T01:24:19.358Z,72.77
2019-03-28T01:25:19.364Z,72.45
2019-03-28T01:26:19.389Z,71.89
2019-03-28T01:27:19.362Z,72.89
2019-03-28T01:28:19.395Z,72.86
2019-03-28T01:29:19.417Z,72.79
2019-03-28T01:30:19.391Z,72.47
2019-03-28T01:31:19.389Z,72.61
2019-03-28T01:32:19.367Z,72.88
2019-03-28T01:33:19.372Z,73
2019-03-28T01:34:19.405Z,73.09
2019-03-28T01:35:19.389Z,73.15
2019-03-28T01:36:19.363Z,73.23
2019-03-28T01:37:19.478Z,73.15
2019-03-28T01:38:20.508Z,73.09
2019-03-28T01:39:21.213Z,73.07
2019-03-28T01:40:19.547Z,73.13
2019-03-28T01:41:19.349Z,73.14
2019-03-28T01:42:19.441Z,73.02
2019-03-28T01:43:20.361Z,72.64
2019-03-28T01:44:19.342Z,72.81
2019-03-28T01:45:19.372Z,72.52
2019-03-28T01:46:19.331Z,72.65
2019-03-28T01:47:19.363Z,72.84
2019-03-28T01:48:19.331Z,72.87
2019-03-28T01:49:19.320Z,73.03
2019-03-28T01:50:19.323Z,72.55
2019-03-28T01:51:19.313Z,72.88
2019-03-28T01:52:19.324Z,72.98
2019-03-28T01:53:19.335Z,72.73
2019-03-28T01:54:19.345Z,72.25
2019-03-28T01:55:19.311Z,72.76
2019-03-28T01:56:19.318Z,72.87
2019-03-28T01:57:19.350Z,72.96
2019-03-28T01:58:19.318Z,72.98
2019-03-28T01:59:19.302Z,73.06
2019-03-28T02:00:19.316Z,73.17
2019-03-28T02:01:19.638Z,73.4
2019-03-28T02:02:20.381Z,73.73
2019-03-28T02:03:19.364Z,73.89
2019-03-28T02:04:19.318Z,73.8
2019-03-28T02:05:19.325Z,73.73
2019-03-28T02:06:19.315Z,73.62
2019-03-28T02:07:19.321Z,73.25
2019-03-28T02:08:19.284Z,73.06
2019-03-28T02:09:19.280Z,72.89
2019-03-28T02:10:19.288Z,72.73
2019-03-28T02:11:19.277Z,72.77
2019-03-28T02:12:19.303Z,72.73
2019-03-28T02:13:19.284Z,73.12
2019-03-28T02:14:19.280Z,73.63
2019-03-28T02:15:19.307Z,73.82
2019-03-28T02:16:19.315Z,74.15
2019-03-28T02:17:19.269Z,74
2019-03-28T02:18:19.276Z,73.84
2019-03-28T02:19:19.665Z,74.18
2019-03-28T02:20:19.300Z,74.07
2019-03-28T02:21:19.380Z,74.02
2019-03-28T02:22:19.704Z,73.86
2019-03-28T02:23:19.458Z,73.68
2019-03-28T02:24:19.255Z,73.67
2019-03-28T02:25:19.310Z,73.22
2019-03-28T02:26:20.472Z,73.63
2019-03-28T02:27:26.025Z,73.77
2019-03-28T02:28:19.302Z,73.48
2019-03-28T02:29:19.305Z,73.28
2019-03-28T02:30:19.269Z,73.08
2019-03-28T02:31:19.458Z,73.1
2019-03-28T02:32:19.292Z,73.06
2019-03-28T02:33:19.359Z,73.87
2019-03-28T02:34:19.289Z,74.69
2019-03-28T02:35:19.463Z,74.32
2019-03-28T02:36:19.274Z,74.22
2019-03-28T02:37:19.270Z,74.12
2019-03-28T02:38:19.351Z,74.27
2019-03-28T02:39:19.296Z,74.67
2019-03-28T02:40:19.315Z,74.61
2019-03-28T02:41:19.260Z,74.44
2019-03-28T02:42:19.307Z,74.44
2019-03-28T02:43:20.289Z,74.09
2019-03-28T02:44:19.280Z,74.2
2019-03-28T02:45:19.263Z,74.39
2019-03-28T02:46:19.296Z,74.81
2019-03-28T02:47:20.534Z,74.45
2019-03-28T02:48:19.258Z,74.8
2019-03-28T02:49:20.262Z,74.65
2019-03-28T02:50:19.248Z,74.6
2019-03-28T02:51:19.279Z,74.54
2019-03-28T02:52:19.257Z,74.27
2019-03-28T02:53:19.249Z,74.16
2019-03-28T02:54:19.264Z,73.97
2019-03-28T02:55:19.305Z,74.23
2019-03-28T02:56:20.352Z,74.66
2019-03-28T02:57:20.191Z,74.55
2019-03-28T02:58:19.296Z,74.65
2019-03-28T02:59:19.247Z,74.73
2019-03-28T03:00:20.763Z,74.41
2019-03-28T03:01:19.215Z,74.25
2019-03-28T03:02:19.207Z,74.6
2019-03-28T03:03:19.283Z,74.64
2019-03-28T03:04:19.292Z,74.7
2019-03-28T03:05:19.332Z,75.1
2019-03-28T03:06:19.324Z,74.92
2019-03-28T03:07:19.297Z,74.95
2019-03-28T03:08:19.261Z,75.23
2019-03-28T03:09:19.254Z,75.05
2019-03-28T03:10:19.219Z,75.12
2019-03-28T03:11:20.897Z,74.67
2019-03-28T03:12:19.303Z,74.67
2019-03-28T03:13:20.230Z,74.41
2019-03-28T03:14:19.318Z,74.78
2019-03-28T03:15:19.233Z,74.83
2019-03-28T03:16:19.221Z,74.75
2019-03-28T03:17:20.475Z,74.69
2019-03-28T03:18:22.023Z,74.7
2019-03-28T03:19:19.214Z,74.72
2019-03-28T03:20:19.207Z,74.75
2019-03-28T03:21:19.200Z,74.74
2019-03-28T03:22:19.266Z,74.96
2019-03-28T03:23:20.518Z,75.01
2019-03-28T03:24:19.259Z,74.42
2019-03-28T03:25:19.269Z,74.23
2019-03-28T03:26:19.231Z,74.19
2019-03-28T03:27:19.490Z,74.27
2019-03-28T03:28:19.210Z,74.18
2019-03-28T03:29:19.173Z,74.49
2019-03-28T03:30:19.259Z,74.7
2019-03-28T03:31:26.690Z,74.54
2019-03-28T03:32:19.815Z,74.72
2019-03-28T03:33:19.231Z,74.93
2019-03-28T03:34:19.231Z,75.23
2019-03-28T03:35:19.247Z,75.34
2019-03-28T03:36:19.192Z,75.71
2019-03-28T03:37:19.225Z,75.87
2019-03-28T03:38:19.241Z,75.9
2019-03-28T03:39:19.147Z,76.06
2019-03-28T03:40:19.164Z,76.4
2019-03-28T03:41:19.201Z,76.28
2019-03-28T03:42:19.288Z,76.27
2019-03-28T03:43:19.150Z,76.75
2019-03-28T03:44:19.143Z,77.22
2019-03-28T03:45:19.151Z,77
2019-03-28T03:46:19.149Z,76.54
2019-03-28T03:47:20.085Z,76.68
2019-03-28T03:48:19.384Z,76.75
2019-03-28T03:49:19.403Z,76.86
2019-03-28T03:50:19.188Z,76.8
2019-03-28T03:51:19.223Z,76.88
2019-03-28T03:52:19.146Z,76.72
2019-03-28T03:53:19.250Z,77.02
2019-03-28T03:54:19.174Z,77.02
2019-03-28T03:55:19.201Z,76.94
2019-03-28T03:56:19.200Z,77.09
2019-03-28T03:57:19.160Z,77.15
2019-03-28T03:58:19.580Z,77.27
2019-03-28T03:59:19.180Z,77.4
2019-03-28T04:00:19.182Z,77.44
2019-03-28T04:01:19.107Z,77.15
2019-03-28T04:02:19.130Z,76.92
2019-03-28T04:03:19.120Z,77.02
2019-03-28T04:04:19.115Z,77.16
2019-03-28T04:05:19.164Z,77.29
2019-03-28T04:06:19.173Z,77.4
2019-03-28T04:07:19.129Z,77.47
2019-03-28T04:08:19.218Z,77.23
2019-03-28T04:09:19.148Z,77.18
2019-03-28T04:10:19.360Z,77.43
2019-03-28T04:11:19.172Z,77.17
2019-03-28T04:12:19.263Z,77.16
2019-03-28T04:13:19.195Z,77.04
2019-03-28T04:14:19.306Z,76.92
2019-03-28T04:15:19.143Z,76.92
2019-03-28T04:16:19.163Z,76.89
2019-03-28T04:17:19.133Z,76.78
2019-03-28T04:18:22.824Z,76.67
2019-03-28T04:19:19.219Z,76.82
2019-03-28T04:20:19.101Z,76.7
2019-03-28T04:21:19.127Z,76.44
2019-03-28T04:22:19.100Z,75.97
2019-03-28T04:23:19.138Z,76.05
2019-03-28T04:24:19.130Z,76.28
2019-03-28T04:25:19.105Z,76.37
2019-03-28T04:26:19.125Z,76.83
2019-03-28T04:27:19.235Z,77.12
2019-03-28T04:28:32.923Z,77.3
2019-03-28T04:29:19.167Z,77.81
2019-03-28T04:30:19.123Z,77.97
2019-03-28T04:31:19.299Z,78.1
2019-03-28T04:32:19.327Z,78.36
2019-03-28T04:33:19.179Z,78.14
2019-03-28T04:34:19.109Z,78.28
2019-03-28T04:35:19.075Z,78.15
2019-03-28T04:36:19.130Z,78.18
2019-03-28T04:37:19.155Z,78.03
2019-03-28T04:38:19.128Z,77.52
2019-03-28T04:39:19.089Z,77.67
2019-03-28T04:40:19.109Z,77.87
2019-03-28T04:41:19.060Z,77.8
2019-03-28T04:42:19.150Z,77.67
2019-03-28T04:43:19.081Z,77.27
2019-03-28T04:44:19.074Z,77.43
2019-03-28T04:45:19.080Z,77.77
2019-03-28T04:46:19.080Z,77.94
2019-03-28T04:47:19.070Z,77.44
2019-03-28T04:48:19.119Z,77.77
2019-03-28T04:49:19.182Z,77.76
2019-03-28T04:50:19.052Z,78.1
2019-03-28T04:51:19.133Z,77.56
2019-03-28T04:52:19.688Z,77.55
2019-03-28T04:53:19.268Z,77.72
2019-03-28T04:54:19.189Z,77.24
2019-03-28T04:55:19.044Z,77.34
2019-03-28T04:56:19.078Z,77.6
2019-03-28T04:57:19.051Z,77.75
2019-03-28T04:58:23.676Z,77.8
2019-03-28T04:59:19.091Z,77.56
2019-03-28T05:00:19.156Z,77.48
2019-03-28T05:01:19.032Z,77.63
2019-03-28T05:02:19.103Z,77.61
2019-03-28T05:03:19.069Z,77.56
2019-03-28T05:04:21.432Z,77.5
2019-03-28T05:05:19.036Z,77.73
2019-03-28T05:06:19.036Z,78.03
2019-03-28T05:07:19.076Z,77.46
2019-03-28T05:08:19.071Z,77.67
2019-03-28T05:09:19.097Z,77.33
2019-03-28T05:10:19.148Z,77.26
2019-03-28T05:11:19.054Z,77.67
2019-03-28T05:12:19.187Z,77.15
2019-03-28T05:13:19.200Z,77.36
2019-03-28T05:14:19.050Z,77.76
2019-03-28T05:15:20.722Z,77.51
2019-03-28T05:16:19.038Z,77.73
2019-03-28T05:17:19.017Z,78.01
2019-03-28T05:18:19.042Z,77.93
2019-03-28T05:19:19.100Z,78.26
2019-03-28T05:20:19.015Z,78.89
2019-03-28T05:21:19.051Z,78.44
2019-03-28T05:22:20.002Z,78.38
2019-03-28T05:23:19.060Z,78.43
2019-03-28T05:24:19.034Z,78.44
2019-03-28T05:25:19.011Z,78.14
2019-03-28T05:26:18.992Z,78.04
2019-03-28T05:27:19.022Z,77.81
2019-03-28T05:28:19.001Z,77.88
2019-03-28T05:29:19.056Z,78.09
2019-03-28T05:30:18.990Z,78
2019-03-28T05:31:18.979Z,77.72
2019-03-28T05:32:18.974Z,77.35
2019-03-28T05:33:18.986Z,77.7
2019-03-28T05:34:18.978Z,78.12
2019-03-28T05:35:19.168Z,77.77
2019-03-28T05:36:19.063Z,78.1
2019-03-28T05:37:19.026Z,77.71
2019-03-28T05:38:19.013Z,77.34
2019-03-28T05:39:19.819Z,77.23
2019-03-28T05:40:18.972Z,77.57
2019-03-28T05:41:18.975Z,77.95
2019-03-28T05:42:19.003Z,78.1
2019-03-28T05:43:18.992Z,78.06
2019-03-28T05:44:18.984Z,77.76
2019-03-28T05:45:19.005Z,77.9
2019-03-28T05:46:18.968Z,77.99
2019-03-28T05:47:22.481Z,77.72
2019-03-28T05:48:19.048Z,77.65
2019-03-28T05:49:18.966Z,78.09
2019-03-28T05:50:18.951Z,78.12
2019-03-28T05:51:18.949Z,78.07
2019-03-28T05:52:18.948Z,78.08
2019-03-28T05:53:18.956Z,78.05
2019-03-28T05:54:18.979Z,78.16
2019-03-28T05:55:18.982Z,78.16
2019-03-28T05:56:18.946Z,78.14
2019-03-28T05:57:19.011Z,78.23
2019-03-28T05:58:19.186Z,78.46
2019-03-28T05:59:19.821Z,78.43
2019-03-28T06:00:19.013Z,78.22
2019-03-28T06:01:18.959Z,78.18
2019-03-28T06:02:18.962Z,77.99
2019-03-28T06:03:18.965Z,78.27
2019-03-28T06:04:18.928Z,79.5
2019-03-28T06:05:18.983Z,79.59
2019-03-28T06:06:18.951Z,78.32
2019-03-28T06:07:18.914Z,78.05
2019-03-28T06:08:18.943Z,77.81
2019-03-28T06:09:19.588Z,78.01
2019-03-28T06:10:18.955Z,78.19
2019-03-28T06:11:18.931Z,78.26
2019-03-28T06:12:19.508Z,78.33
2019-03-28T06:13:18.979Z,78.63
2019-03-28T06:14:18.956Z,78.83
2019-03-28T06:15:18.917Z,78.69
2019-03-28T06:16:18.915Z,78.74
2019-03-28T06:17:18.918Z,78.77
2019-03-28T06:18:18.915Z,78.59
2019-03-28T06:19:18.918Z,78.05
2019-03-28T06:20:18.930Z,77.62
2019-03-28T06:21:18.954Z,77.68
2019-03-28T06:22:18.917Z,78.21
2019-03-28T06:23:18.979Z,78.52
2019-03-28T06:24:18.976Z,78.29
2019-03-28T06:25:18.913Z,77.64
2019-03-28T06:26:18.969Z,77.78
2019-03-28T06:27:18.938Z,78.18
2019-03-28T06:28:18.954Z,78.32
2019-03-28T06:29:26.142Z,78.22
2019-03-28T06:30:18.954Z,78.22
2019-03-28T06:31:18.893Z,78.59
2019-03-28T06:32:18.945Z,78.3
2019-03-28T06:33:18.921Z,78.58
2019-03-28T06:34:19.032Z,78.79
2019-03-28T06:35:22.153Z,79.09
2019-03-28T06:36:18.926Z,79.04
2019-03-28T06:37:18.940Z,78.96
2019-03-28T06:38:18.888Z,78.89
2019-03-28T06:39:18.977Z,78.91
2019-03-28T06:40:19.247Z,79.02
2019-03-28T06:41:20.256Z,79.38
2019-03-28T06:42:18.926Z,79.06
2019-03-28T06:43:18.896Z,78.95
2019-03-28T06:44:18.916Z,79.07
2019-03-28T06:45:18.954Z,78.96
2019-03-28T06:46:18.965Z,78.57
2019-03-28T06:47:22.857Z,78.36
2019-03-28T06:48:18.926Z,77.94
2019-03-28T06:49:18.877Z,78.13
2019-03-28T06:50:18.881Z,78.66
2019-03-28T06:51:18.953Z,78.93
2019-03-28T06:52:18.997Z,78.72
2019-03-28T06:53:18.900Z,79.09
2019-03-28T06:54:18.880Z,78.64
2019-03-28T06:55:18.913Z,78.91
2019-03-28T06:56:18.976Z,79.01
2019-03-28T06:57:19.166Z,78.53
2019-03-28T06:58:18.992Z,78.87
2019-03-28T06:59:18.877Z,78.71
2019-03-28T07:00:18.926Z,78.41
2019-03-28T07:01:18.895Z,78.2
2019-03-28T07:02:22.232Z,78.14
2019-03-28T07:03:18.932Z,78.04
2019-03-28T07:04:18.899Z,77.63
2019-03-28T07:05:18.855Z,78.54
2019-03-28T07:06:18.851Z,78.05
2019-03-28T07:07:19.172Z,78.07
2019-03-28T07:08:18.867Z,78.32
2019-03-28T07:09:18.867Z,78.43
2019-03-28T07:10:18.845Z,78.7
2019-03-28T07:11:18.854Z,78.94
2019-03-28T07:12:18.899Z,78.85
2019-03-28T07:13:18.849Z,78.86
2019-03-28T07:14:18.826Z,79.01
2019-03-28T07:15:18.850Z,78.89
2019-03-28T07:16:24.004Z,78.63
2019-03-28T07:17:18.960Z,78.67
2019-03-28T07:18:18.894Z,79.13
2019-03-28T07:19:18.863Z,78.95
2019-03-28T07:20:18.889Z,79.16
2019-03-28T07:21:20.292Z,78.73
2019-03-28T07:22:18.876Z,78.68
2019-03-28T07:23:18.992Z,78.27
2019-03-28T07:24:18.947Z,78.54
2019-03-28T07:25:18.827Z,78.92
2019-03-28T07:26:18.837Z,78.84
2019-03-28T07:27:18.826Z,78.43
2019-03-28T07:28:18.807Z,78.32
2019-03-28T07:29:18.834Z,78.54
2019-03-28T07:30:19.741Z,78.41
2019-03-28T07:31:18.808Z,78.06
2019-03-28T07:32:18.879Z,78.23
2019-03-28T07:33:18.839Z,78.27
2019-03-28T07:34:18.819Z,78.24
2019-03-28T07:35:18.853Z,78.16
2019-03-28T07:36:18.815Z,78.11
2019-03-28T07:37:18.869Z,78.05
2019-03-28T07:38:18.827Z,77.8
2019-03-28T07:39:19.441Z,77.91
2019-03-28T07:40:18.828Z,77.7
2019-03-28T07:41:18.912Z,77.42
2019-03-28T07:42:18.822Z,77.42
2019-03-28T07:43:18.846Z,77.55
2019-03-28T07:44:18.814Z,77.14
2019-03-28T07:45:18.887Z,77.37
2019-03-28T07:46:18.899Z,77.03
2019-03-28T07:47:18.825Z,77.36
2019-03-28T07:48:18.843Z,77.22
2019-03-28T07:49:18.850Z,76.68
2019-03-28T07:50:18.774Z,76.75
2019-03-28T07:51:18.808Z,76.5
2019-03-28T07:52:20.481Z,76.53
2019-03-28T07:53:21.863Z,76.46
2019-03-28T07:54:18.817Z,76.31
2019-03-28T07:55:20.146Z,76.13
2019-03-28T07:56:18.798Z,76.47
2019-03-28T07:57:18.786Z,76.2
2019-03-28T07:58:18.778Z,76.5
2019-03-28T07:59:18.884Z,75.97
2019-03-28T08:00:18.929Z,75.91
2019-03-28T08:01:18.796Z,76.03
2019-03-28T08:02:18.829Z,75.87
2019-03-28T08:03:18.768Z,76.04
2019-03-28T08:04:18.776Z,75.86
2019-03-28T08:05:18.779Z,75.69
2019-03-28T08:06:18.757Z,75.28
2019-03-28T08:07:18.800Z,74.7
2019-03-28T08:08:18.778Z,75.34
2019-03-28T08:09:18.784Z,75.57
2019-03-28T08:10:18.774Z,75.49
2019-03-28T08:11:18.976Z,75.49
2019-03-28T08:12:23.802Z,75.26
2019-03-28T08:13:18.804Z,75.48
2019-03-28T08:14:18.748Z,75.34
2019-03-28T08:15:18.773Z,75.56
2019-03-28T08:16:18.738Z,75.56
2019-03-28T08:17:18.809Z,75.43
2019-03-28T08:18:19.803Z,75.29
2019-03-28T08:19:18.813Z,75.23
2019-03-28T08:20:18.783Z,75.38
2019-03-28T08:21:18.793Z,75.31
2019-03-28T08:22:18.755Z,75.2
2019-03-28T08:23:19.628Z,75.05
2019-03-28T08:24:18.814Z,74.98
2019-03-28T08:25:19.871Z,75.37
2019-03-28T08:26:18.748Z,75.37
2019-03-28T08:27:18.733Z,75.28
2019-03-28T08:28:18.891Z,75.21
2019-03-28T08:29:18.899Z,75.13
2019-03-28T08:30:19.869Z,74.81
2019-03-28T08:31:18.739Z,74.82
2019-03-28T08:32:18.742Z,74.33
2019-03-28T08:33:18.748Z,74.65
2019-03-28T08:34:19.145Z,74.45
2019-03-28T08:35:18.722Z,74.2
2019-03-28T08:36:18.750Z,74.22
2019-03-28T08:37:18.834Z,73.94
2019-03-28T08:38:18.723Z,74.11
2019-03-28T08:39:18.713Z,73.91
2019-03-28T08:40:18.707Z,73.9
2019-03-28T08:41:20.054Z,73.92
2019-03-28T08:42:19.957Z,73.81
2019-03-28T08:43:18.715Z,73.98
2019-03-28T08:44:18.719Z,73.88
2019-03-28T08:45:18.726Z,73.72
2019-03-28T08:46:18.749Z,73.69
2019-03-28T08:47:18.712Z,73.85
2019-03-28T08:48:18.751Z,73.65
2019-03-28T08:49:18.813Z,73.4
2019-03-28T08:50:18.721Z,73.06
2019-03-28T08:51:18.748Z,73.12
2019-03-28T08:52:18.718Z,73.16
2019-03-28T08:53:18.761Z,73.09
2019-03-28T08:54:18.696Z,72.99
2019-03-28T08:55:18.704Z,72.68
2019-03-28T08:56:18.710Z,72.75
2019-03-28T08:57:18.725Z,72.66
2019-03-28T08:58:18.696Z,72.01
2019-03-28T08:59:19.126Z,72.09
2019-03-28T09:00:53.108Z,72.54
2019-03-28T09:01:19.577Z,72.56
2019-03-28T09:02:18.694Z,72.49
2019-03-28T09:03:18.729Z,72.05
2019-03-28T09:04:18.703Z,71.7
2019-03-28T09:05:18.671Z,70.96
2019-03-28T09:06:18.795Z,71.17
2019-03-28T09:07:18.720Z,71.38
2019-03-28T09:08:18.721Z,71.4
2019-03-28T09:09:21.694Z,71.07
2019-03-28T09:10:18.678Z,71.41
2019-03-28T09:11:21.781Z,70.65
2019-03-28T09:12:18.904Z,70.03
2019-03-28T09:13:19.102Z,70.25
2019-03-28T09:14:18.679Z,70.17
2019-03-28T09:15:19.021Z,71.09
2019-03-28T09:16:18.730Z,71.11
2019-03-28T09:17:18.690Z,70.5
2019-03-28T09:18:19.066Z,69.81
2019-03-28T09:19:19.055Z,70.05
2019-03-28T09:20:18.674Z,68.96
2019-03-28T09:21:18.676Z,70.21
2019-03-28T09:22:18.719Z,69.91
2019-03-28T09:23:18.643Z,68.87
2019-03-28T09:24:18.649Z,67.86
2019-03-28T09:25:18.762Z,67.85
2019-03-28T09:26:18.671Z,67.72
2019-03-28T09:27:18.642Z,67.87
2019-03-28T09:28:18.634Z,67.64
2019-03-28T09:29:18.729Z,67.52
2019-03-28T09:30:18.646Z,67.15
2019-03-28T09:31:20.738Z,68.04
2019-03-28T09:32:18.862Z,67.81
2019-03-28T09:33:18.790Z,67.22
2019-03-28T09:34:18.673Z,66.32
2019-03-28T09:35:18.636Z,65.51
2019-03-28T09:36:18.674Z,65.23
2019-03-28T09:37:18.662Z,65.56
2019-03-28T09:38:18.679Z,66.36
2019-03-28T09:39:19.978Z,65.98
2019-03-28T09:40:18.657Z,65.66
2019-03-28T09:41:19.719Z,65.35
2019-03-28T09:42:19.659Z,65.78
2019-03-28T09:43:18.674Z,65.97
2019-03-28T09:44:18.649Z,65.21
2019-03-28T09:45:18.614Z,65.22
2019-03-28T09:46:18.629Z,64.88
2019-03-28T09:47:18.631Z,64.62
2019-03-28T09:48:18.655Z,64.28
2019-03-28T09:49:18.596Z,63.85
2019-03-28T09:50:18.623Z,64.21
2019-03-28T09:51:18.621Z,64.35
2019-03-28T09:52:18.601Z,64
2019-03-28T09:53:18.585Z,64.62
2019-03-28T09:54:19.741Z,65.06
2019-03-28T09:55:19.243Z,64.79
2019-03-28T09:56:18.659Z,64.74
2019-03-28T09:57:18.726Z,64.85
2019-03-28T09:58:18.620Z,63.89
2019-03-28T09:59:18.639Z,64.59
2019-03-28T10:00:18.612Z,64.39
2019-03-28T10:01:18.685Z,64.3
2019-03-28T10:02:18.576Z,63.96
2019-03-28T10:03:18.601Z,62.51
2019-03-28T10:04:18.595Z,62.06
2019-03-28T10:05:18.574Z,62.39
2019-03-28T10:06:18.592Z,62.08
2019-03-28T10:07:18.662Z,61.45
2019-03-28T10:08:18.559Z,61.91
2019-03-28T10:09:18.572Z,61.37
2019-03-28T10:10:18.631Z,62
2019-03-28T10:11:18.592Z,61.46
2019-03-28T10:12:19.690Z,61.24
2019-03-28T10:13:18.580Z,61.97
2019-03-28T10:14:18.578Z,61.17
2019-03-28T10:15:18.601Z,60.78
2019-03-28T10:16:18.720Z,61.39
2019-03-28T10:17:18.621Z,60.92
2019-03-28T10:18:18.576Z,60.63
2019-03-28T10:19:18.584Z,60.29
2019-03-28T10:20:18.607Z,60.26
2019-03-28T10:21:18.573Z,60.53
2019-03-28T10:22:18.592Z,60.32
2019-03-28T10:23:18.577Z,59.34
2019-03-28T10:24:18.607Z,59.46
2019-03-28T10:25:18.581Z,59.12
2019-03-28T10:26:18.588Z,59.53
2019-03-28T10:27:19.561Z,59.31
2019-03-28T10:28:18.585Z,59.11
2019-03-28T10:29:18.538Z,58.86
2019-03-28T10:30:18.538Z,59.11
2019-03-28T10:31:18.575Z,59.8
2019-03-28T10:32:18.583Z,59.96
2019-03-28T10:33:18.577Z,59.85
2019-03-28T10:34:19.444Z,60.09
2019-03-28T10:35:18.566Z,58.44
2019-03-28T10:36:18.536Z,58.77
2019-03-28T10:37:18.780Z,58.28
2019-03-28T10:38:18.630Z,58.24
2019-03-28T10:39:18.689Z,57.73
2019-03-28T10:40:18.538Z,57.1
2019-03-28T10:41:18.558Z,56.84
2019-03-28T10:42:20.569Z,56.74
2019-03-28T10:43:18.522Z,56.94
2019-03-28T10:44:18.558Z,57.14
2019-03-28T10:45:18.538Z,56.83
2019-03-28T10:46:18.564Z,57.15
2019-03-28T10:47:18.543Z,57.15
2019-03-28T10:48:23.750Z,57.07
2019-03-28T10:49:18.522Z,56.37
2019-03-28T10:50:18.540Z,57.53
2019-03-28T10:51:18.538Z,57.02
2019-03-28T10:52:18.538Z,57.36
2019-03-28T10:53:18.518Z,56.47
2019-03-28T10:54:21.251Z,55.79
2019-03-28T10:55:18.519Z,56.06
2019-03-28T10:56:24.559Z,56.09
2019-03-28T10:57:32.478Z,56.64
2019-03-28T10:58:19.959Z,56.84
2019-03-28T10:59:25.711Z,55.55
2019-03-28T11:00:26.060Z,55.95
2019-03-28T11:01:51.207Z,56.08
2019-03-28T11:02:18.516Z,55.8
2019-03-28T11:03:18.507Z,55.91
2019-03-28T11:04:18.569Z,55.7
2019-03-28T11:05:18.558Z,55.89
2019-03-28T11:06:18.543Z,55.08
2019-03-28T11:07:18.551Z,55.49
2019-03-28T11:08:18.580Z,55
2019-03-28T11:09:18.586Z,54.69
2019-03-28T11:10:18.530Z,55.31
2019-03-28T11:11:18.529Z,55.33
2019-03-28T11:12:18.492Z,55.11
2019-03-28T11:13:18.521Z,54.74
2019-03-28T11:14:18.512Z,55.65
2019-03-28T11:15:18.518Z,55.84
2019-03-28T11:16:18.493Z,56.1
2019-03-28T11:17:18.517Z,54.73
2019-03-28T11:18:18.523Z,54.26
2019-03-28T11:19:18.525Z,54.44
2019-03-28T11:20:18.783Z,54.54
2019-03-28T11:21:18.512Z,54.19
2019-03-28T11:22:18.571Z,53.18
2019-03-28T11:23:18.506Z,53.11
2019-03-28T11:24:18.492Z,54.28
2019-03-28T11:25:18.477Z,54.97
2019-03-28T11:26:18.604Z,55
2019-03-28T11:27:18.493Z,53.01
2019-03-28T11:28:18.545Z,53.36
2019-03-28T11:29:18.595Z,53.9
2019-03-28T11:30:18.934Z,54.83
2019-03-28T11:31:18.480Z,54.9
2019-03-28T11:32:19.109Z,53.44
2019-03-28T11:33:18.469Z,52.96
2019-03-28T11:34:18.485Z,52.86
2019-03-28T11:35:18.568Z,53.22
2019-03-28T11:36:18.456Z,52.81
2019-03-28T11:38:18.684Z,52.76
2019-03-28T11:39:18.460Z,51.79
2019-03-28T11:40:19.399Z,51.53
2019-03-28T11:41:18.909Z,51.79
2019-03-28T11:42:19.725Z,52.04
2019-03-28T11:43:20.128Z,53.05
2019-03-28T11:44:18.514Z,52.92
2019-03-28T11:45:18.500Z,51.71
2019-03-28T11:46:18.508Z,52.09
2019-03-28T11:47:24.194Z,51.72
2019-03-28T11:48:18.483Z,51.85
2019-03-28T11:49:18.456Z,51.33
2019-03-28T11:50:18.453Z,51.51
2019-03-28T11:51:18.469Z,51.36
2019-03-28T11:52:18.444Z,51.4
2019-03-28T11:53:18.472Z,50.62
2019-03-28T11:54:18.443Z,50.95
2019-03-28T11:55:18.459Z,51.49
2019-03-28T11:56:18.471Z,51.05
2019-03-28T11:57:18.461Z,51.24
2019-03-28T11:58:18.527Z,51.47
2019-03-28T11:59:18.490Z,50.52
2019-03-28T12:00:18.474Z,50.92
2019-03-28T12:01:18.492Z,51.4
2019-03-28T12:02:20.967Z,50.89
2019-03-28T12:03:18.464Z,51.61
2019-03-28T12:04:18.402Z,50.91
2019-03-28T12:05:18.438Z,51.36
2019-03-28T12:06:18.479Z,51.21
2019-03-28T12:07:18.530Z,50.51
2019-03-28T12:08:19.693Z,49.01
2019-03-28T12:09:18.492Z,49.21
2019-03-28T12:10:18.466Z,50.77
2019-03-28T12:11:18.454Z,50.58
2019-03-28T12:12:18.417Z,49.03
2019-03-28T12:13:18.487Z,48.85
2019-03-28T12:14:18.442Z,48.87
2019-03-28T12:15:18.421Z,49.34
2019-03-28T12:16:18.482Z,49.18
2019-03-28T12:17:18.449Z,48.47
2019-03-28T12:18:18.473Z,48.85
2019-03-28T12:19:18.443Z,49.02
2019-03-28T12:20:18.483Z,49.23
2019-03-28T12:21:19.286Z,49.28
2019-03-28T12:22:18.476Z,49.13
2019-03-28T12:23:18.395Z,48.52
2019-03-28T12:24:18.409Z,48.41
2019-03-28T12:25:18.453Z,48.41
2019-03-28T12:26:18.423Z,48.47
2019-03-28T12:27:18.427Z,49.21
2019-03-28T12:28:18.415Z,48.33
2019-03-28T12:29:18.421Z,48.72
2019-03-28T12:30:18.442Z,48.27
2019-03-28T12:31:18.405Z,48.61
2019-03-28T12:32:18.386Z,48.66
2019-03-28T12:33:18.376Z,47.93
2019-03-28T12:34:18.393Z,48.12
2019-03-28T12:35:18.409Z,47.98
2019-03-28T12:36:19.195Z,47.9
2019-03-28T12:37:18.383Z,47.86
2019-03-28T12:38:18.408Z,48.23
2019-03-28T12:39:18.384Z,48.73
2019-03-28T12:40:18.383Z,49.76
2019-03-28T12:41:18.517Z,48.84
2019-03-28T12:42:18.521Z,48.26
2019-03-28T12:43:18.382Z,48.2
2019-03-28T12:44:18.367Z,48.23
2019-03-28T12:45:18.441Z,48.15
2019-03-28T12:46:18.369Z,47.82
2019-03-28T12:47:18.374Z,47.92
2019-03-28T12:48:18.369Z,47.85
2019-03-28T12:49:18.365Z,47.79
2019-03-28T12:50:18.366Z,47.55
2019-03-28T12:51:18.366Z,47.6
2019-03-28T12:52:18.929Z,47.74
2019-03-28T12:53:18.369Z,47.96
2019-03-28T12:54:18.370Z,48.33
2019-03-28T12:55:18.399Z,48.47
2019-03-28T12:56:18.395Z,47.87